KCOE

Coeur D'alene - Pappy Boyington Field Airport

Coeur D'alene, Idaho, USA
KCOE 202332Z 2100/2124 24010KT P6SM FEW060 BKN200 FM210200 16005KT P6SM SCT120 BKN200 FM210800 18007KT P6SM VCSH SCT080 OVC110 FM211100 19009KT P6SM FEW060 BKN090 FM211600 22017G24KT P6SM SCT070
Issued Valid From Valid To
Apr-20 @ 23:32 UTC
(4 hours ago)
Apr-21 @ 00:00 UTC
(4 hours ago)
Apr-22 @ 00:00 UTC
(in 20 hours)
Expired Click to View Apr-21 @ 00:00 to Apr-21 @ 02:00
KCOE 202332Z 2100/2124 24010KT P6SM FEW060 BKN200
Wind Visibility Clouds
240° at 10 knots Greater than 6 miles
  • Few at 6,000' AGL
  • Broken at 20,000' AGL
From Apr-21 @ 02:00 to Apr-21 @ 08:00
FM210200 16005KT P6SM SCT120 BKN200
Wind Visibility Clouds
160° at 5 knots Greater than 6 miles
  • Scattered at 12,000' AGL
  • Broken at 20,000' AGL
From Apr-21 @ 08:00 to Apr-21 @ 11:00
FM210800 18007KT P6SM VCSH SCT080 OVC110
Wind Visibility Clouds
180° at 7 knots Greater than 6 miles
  • Scattered at 8,000' AGL
  • Overcast at 11,000' AGL
From Apr-21 @ 11:00 to Apr-21 @ 16:00
FM211100 19009KT P6SM FEW060 BKN090
Wind Visibility Clouds
190° at 9 knots Greater than 6 miles
  • Few at 6,000' AGL
  • Broken at 9,000' AGL
From Apr-21 @ 16:00 to Apr-22 @ 00:00
FM211600 22017G24KT P6SM SCT070
Wind Visibility Clouds
220° at 17 knots
 Gusting to 24 knots
Greater than 6 miles
  • Scattered at 7,000' AGL
KCOE 202332Z 2100/2124 24010KT P6SM FEW060 BKN200 FM210200 16005KT P6SM SCT120 BKN200 FM210800 18007KT P6SM VCSH SCT080 OVC110 FM211100 19009KT P6SM FEW060 BKN090 FM211600 22017G24KT P6SM SCT070
Issued Apr-20 @ 23:32 UTC
(4 hours ago)
Valid From Apr-21 @ 00:00 UTC
(4 hours ago)
Valid To Apr-22 @ 00:00 UTC
(in 20 hours)
Apr-21 @ 00:00 - Apr-21 @ 02:00
Wind Visibility
240° at 10 knots Greater than 6 miles
Clouds
  • Few at 6,000' AGL
  • Broken at 20,000' AGL
From Apr-21 @ 02:00 - Apr-21 @ 08:00
Wind Visibility
160° at 5 knots Greater than 6 miles
Clouds
  • Scattered at 12,000' AGL
  • Broken at 20,000' AGL
From Apr-21 @ 08:00 - Apr-21 @ 11:00
Wind Visibility
180° at 7 knots Greater than 6 miles
Clouds
  • Scattered at 8,000' AGL
  • Overcast at 11,000' AGL
From Apr-21 @ 11:00 - Apr-21 @ 16:00
Wind Visibility
190° at 9 knots Greater than 6 miles
Clouds
  • Few at 6,000' AGL
  • Broken at 9,000' AGL
From Apr-21 @ 16:00 - Apr-22 @ 00:00
Wind Visibility
220° at 17 knots
 Gusting to 24 knots
Greater than 6 miles
Clouds
  • Scattered at 7,000' AGL